Current Conditions
Hazy
Conditions



Pressure
29.92 (inHG) - 1013.22 (mb)
Visibility

6.0 (miles) - 9.7 (km)
   Temperature
63  °F
17°C
59  °F
Dewpoint
88  %
 Humidity
   Wind Speed
8  mph
7  kts
13  km/h
3.6  m/s
   Wind Direction
 260°
Due West
   Airport Data
KSBA
Location Santa Barbara Municipal Airport 6 mi (9.65 km)
Metar :KSBA 060014Z 26007KT 6SM HZ BKN004 17/15 A2992 RMK AO2 T01670150
Wed 5th October 17:14 pm
   Raw Metar Info
Raw METAR is the most common format in the world for the transmission of observational weather data. It is highly standardized through the International Civil Aviation Organization (ICAO), which allows it to be understood throughout most of the world.
   API Info
Data Provided by
https://www.checkwx.com/weather/KSBA
   © Info
CSS/SVG/PHP scripts were developed by weather34.com for use in the weather34 template © 2015-2022

Guide Info provided by Metar-Wikipedia